createdAt,value
2018-11-27T00:01:14.273Z,21.10
2018-11-27T00:03:47.788Z,21.10
2018-11-27T00:06:15.332Z,20.48
2018-11-27T00:08:42.696Z,19.07
2018-11-27T00:11:10.065Z,20.02
2018-11-27T00:13:37.433Z,21.77
2018-11-27T00:16:04.845Z,20.30
2018-11-27T00:18:32.151Z,20.88
2018-11-27T00:20:59.480Z,20.48
2018-11-27T00:23:26.773Z,19.85
2018-11-27T00:25:54.511Z,21.62
2018-11-27T00:28:21.782Z,20.43
2018-11-27T00:30:49.102Z,19.02
2018-11-27T00:33:16.384Z,19.37
2018-11-27T00:35:43.715Z,20.37
2018-11-27T00:38:11.008Z,19.90
2018-11-27T00:40:38.340Z,21.55
2018-11-27T00:43:05.645Z,20.40
2018-11-27T00:45:33.024Z,19.90
2018-11-27T00:48:00.322Z,22.95
2018-11-27T00:50:27.641Z,21.25
2018-11-27T00:52:55.137Z,20.75
2018-11-27T00:55:22.533Z,19.85
2018-11-27T00:57:50.460Z,21.70
2018-11-27T01:00:18.573Z,19.05
2018-11-27T01:02:45.897Z,19.90
2018-11-27T01:05:14.603Z,19.32
2018-11-27T01:07:41.924Z,20.77
2018-11-27T01:10:10.332Z,19.35
2018-11-27T01:12:37.680Z,20.72
2018-11-27T01:15:05.483Z,19.98
2018-11-27T01:17:32.793Z,20.50
2018-11-27T01:20:00.160Z,20.10
2018-11-27T01:22:27.478Z,18.30
2018-11-27T01:24:54.793Z,20.55
2018-11-27T01:27:22.089Z,18.57
2018-11-27T01:29:49.532Z,19.55
2018-11-27T01:32:16.837Z,19.50
2018-11-27T01:34:44.222Z,19.87
2018-11-27T01:37:11.560Z,18.37
2018-11-27T01:39:38.866Z,18.55
2018-11-27T01:42:06.247Z,19.45
2018-11-27T01:44:33.626Z,19.55
2018-11-27T01:47:01.211Z,20.15
2018-11-27T01:49:28.591Z,18.30
2018-11-27T01:51:55.952Z,18.32
2018-11-27T01:54:23.232Z,17.80
2018-11-27T01:56:50.552Z,19.57
2018-11-27T01:59:17.873Z,18.00
2018-11-27T02:01:45.188Z,16.75
2018-11-27T02:04:12.522Z,17.75
2018-11-27T02:06:39.828Z,16.25
2018-11-27T02:09:07.716Z,19.12
2018-11-27T02:11:35.037Z,17.40
2018-11-27T02:14:02.627Z,17.02
2018-11-27T02:16:30.035Z,17.35
2018-11-27T02:18:57.352Z,17.17
2018-11-27T02:21:24.669Z,17.55
2018-11-27T02:23:51.940Z,18.20
2018-11-27T02:26:19.349Z,17.25
2018-11-27T02:28:46.600Z,17.07
2018-11-27T02:31:13.865Z,18.32
2018-11-27T02:33:41.181Z,16.42
2018-11-27T02:36:08.534Z,16.37
2018-11-27T02:38:35.883Z,17.37
2018-11-27T02:41:03.243Z,17.30
2018-11-27T02:43:30.536Z,16.80
2018-11-27T02:45:57.885Z,18.95
2018-11-27T02:48:25.188Z,15.63
2018-11-27T02:50:52.508Z,17.15
2018-11-27T02:53:19.825Z,17.85
2018-11-27T02:55:47.121Z,17.32
2018-11-27T02:58:14.444Z,16.52
2018-11-27T03:00:41.773Z,16.80
2018-11-27T03:03:09.063Z,16.23
2018-11-27T03:05:36.749Z,16.00
2018-11-27T03:08:04.168Z,15.83
2018-11-27T03:10:31.411Z,15.95
2018-11-27T03:12:58.739Z,16.80
2018-11-27T03:15:26.037Z,17.17
2018-11-27T03:17:53.350Z,16.60
2018-11-27T03:20:20.648Z,16.10
2018-11-27T03:22:47.963Z,17.00
2018-11-27T03:25:15.803Z,14.85
2018-11-27T03:27:43.521Z,13.25
2018-11-27T03:30:11.573Z,11.63
2018-11-27T03:32:38.828Z,14.65
2018-11-27T03:35:07.805Z,13.90
2018-11-27T03:37:35.113Z,13.78
2018-11-27T03:40:02.497Z,15.65
2018-11-27T03:42:29.762Z,14.95
2018-11-27T03:44:57.100Z,14.23
2018-11-27T03:47:24.381Z,13.25
2018-11-27T03:49:51.692Z,13.83
2018-11-27T03:52:19.001Z,14.05
2018-11-27T03:54:46.328Z,14.07
2018-11-27T03:57:13.960Z,13.95
2018-11-27T03:59:41.312Z,14.70
2018-11-27T04:02:08.620Z,15.08
2018-11-27T04:04:35.933Z,14.38
2018-11-27T04:07:03.223Z,15.10
2018-11-27T04:09:31.087Z,15.10
2018-11-27T04:11:58.367Z,14.90
2018-11-27T04:14:25.702Z,14.50
2018-11-27T04:16:52.986Z,15.65
2018-11-27T04:19:20.280Z,15.30
2018-11-27T04:21:47.588Z,12.85
2018-11-27T04:24:14.892Z,15.48
2018-11-27T04:26:42.287Z,14.58
2018-11-27T04:29:09.581Z,15.30
2018-11-27T04:31:36.889Z,13.15
2018-11-27T04:34:04.171Z,14.38
2018-11-27T04:36:31.432Z,14.07
2018-11-27T04:38:58.720Z,13.05
2018-11-27T04:41:26.058Z,14.75
2018-11-27T04:43:53.415Z,14.03
2018-11-27T04:46:20.720Z,14.87
2018-11-27T04:48:48.122Z,14.50
2018-11-27T04:51:15.532Z,15.40
2018-11-27T04:53:42.863Z,16.52
2018-11-27T04:56:10.153Z,14.53
2018-11-27T04:58:37.453Z,14.38
2018-11-27T05:01:05.331Z,15.53
2018-11-27T05:03:32.701Z,14.05
2018-11-27T05:05:59.996Z,14.25
2018-11-27T05:08:27.486Z,14.95
2018-11-27T05:10:54.792Z,13.65
2018-11-27T05:13:22.106Z,14.35
2018-11-27T05:15:49.432Z,14.28
2018-11-27T05:18:17.008Z,14.23
2018-11-27T05:20:44.254Z,14.73
2018-11-27T05:23:11.551Z,14.07
2018-11-27T05:25:38.887Z,14.40
2018-11-27T05:28:06.236Z,13.38
2018-11-27T05:30:33.618Z,15.83
2018-11-27T05:33:00.904Z,15.53
2018-11-27T05:35:28.767Z,13.72
2018-11-27T05:37:56.282Z,13.48
2018-11-27T05:40:23.997Z,13.10
2018-11-27T05:42:52.766Z,12.95
2018-11-27T05:45:20.484Z,14.20
2018-11-27T05:47:47.883Z,12.88
2018-11-27T05:50:15.761Z,12.53
2018-11-27T05:52:43.155Z,11.18
2018-11-27T05:55:10.853Z,13.15
2018-11-27T05:57:38.257Z,12.18
2018-11-27T06:00:08.704Z,13.45
2018-11-27T06:02:36.060Z,11.80
2018-11-27T06:05:03.551Z,11.50
2018-11-27T06:07:30.828Z,11.60
2018-11-27T06:09:58.125Z,11.53
2018-11-27T06:12:25.424Z,11.35
2018-11-27T06:14:52.741Z,13.40
2018-11-27T06:17:20.252Z,12.78
2018-11-27T06:19:47.553Z,13.53
2018-11-27T06:22:14.858Z,13.62
2018-11-27T06:24:42.117Z,14.13
2018-11-27T06:27:09.399Z,14.05
2018-11-27T06:29:36.676Z,14.20
2018-11-27T06:32:03.980Z,14.28
2018-11-27T06:34:31.241Z,13.30
2018-11-27T06:36:58.512Z,12.80
2018-11-27T06:39:25.791Z,13.15
2018-11-27T06:41:53.101Z,13.50
2018-11-27T06:44:20.348Z,11.53
2018-11-27T06:46:47.738Z,14.13
2018-11-27T06:49:15.015Z,13.13
2018-11-27T06:51:42.317Z,13.85
2018-11-27T06:54:09.625Z,13.13
2018-11-27T06:56:36.933Z,14.38
2018-11-27T06:59:04.231Z,12.47
2018-11-27T07:01:31.536Z,12.73
2018-11-27T07:03:58.840Z,12.45
2018-11-27T07:06:26.144Z,12.68
2018-11-27T07:08:53.479Z,13.08
2018-11-27T07:11:20.756Z,13.60
2018-11-27T07:13:48.060Z,12.15
2018-11-27T07:16:15.315Z,13.53
2018-11-27T07:18:42.606Z,12.60
2018-11-27T07:21:09.887Z,13.03
2018-11-27T07:23:37.191Z,12.30
2018-11-27T07:26:04.781Z,12.15
2018-11-27T07:28:32.059Z,14.87
2018-11-27T07:30:59.310Z,12.90
2018-11-27T07:33:26.889Z,13.65
2018-11-27T07:35:54.204Z,12.82
2018-11-27T07:38:21.497Z,13.45
2018-11-27T07:40:48.764Z,13.80
2018-11-27T07:43:16.040Z,14.05
2018-11-27T07:45:43.326Z,11.85
2018-11-27T07:48:10.671Z,13.08
2018-11-27T07:50:37.953Z,13.58
2018-11-27T07:53:05.324Z,12.95
2018-11-27T07:55:32.632Z,14.15
2018-11-27T07:57:59.884Z,13.95
2018-11-27T08:00:27.972Z,14.07
2018-11-27T08:02:56.687Z,13.55
2018-11-27T08:05:27.745Z,14.25
2018-11-27T08:07:55.561Z,14.33
2018-11-27T08:10:23.493Z,12.50
2018-11-27T08:12:50.795Z,12.68
2018-11-27T08:15:18.720Z,14.10
2018-11-27T08:17:46.007Z,14.15
2018-11-27T08:20:21.788Z,11.80
2018-11-27T08:22:49.156Z,11.57
2018-11-27T08:25:16.424Z,11.60
2018-11-27T08:27:43.713Z,12.90
2018-11-27T08:30:11.805Z,12.82
2018-11-27T08:32:39.136Z,11.33
2018-11-27T08:35:07.617Z,13.70
2018-11-27T08:37:34.920Z,13.40
2018-11-27T08:40:02.193Z,11.60
2018-11-27T08:42:29.504Z,13.30
2018-11-27T08:44:56.768Z,12.95
2018-11-27T08:47:24.068Z,12.05
2018-11-27T08:49:51.366Z,11.70
2018-11-27T08:52:18.668Z,12.88
2018-11-27T08:54:45.984Z,12.50
2018-11-27T08:57:13.288Z,15.38
2018-11-27T08:59:40.548Z,12.88
2018-11-27T09:02:07.827Z,13.15
2018-11-27T09:04:35.329Z,13.00
2018-11-27T09:07:02.616Z,13.72
2018-11-27T09:09:29.948Z,15.10
2018-11-27T09:11:57.227Z,13.32
2018-11-27T09:14:24.532Z,12.10
2018-11-27T09:16:51.785Z,12.25
2018-11-27T09:19:19.055Z,12.45
2018-11-27T09:21:46.286Z,11.80
2018-11-27T09:24:13.672Z,12.45
2018-11-27T09:26:40.974Z,12.00
2018-11-27T09:29:08.271Z,12.03
2018-11-27T09:31:35.811Z,12.95
2018-11-27T09:34:03.117Z,13.18
2018-11-27T09:36:30.396Z,12.55
2018-11-27T09:38:57.698Z,11.88
2018-11-27T09:41:24.995Z,12.82
2018-11-27T09:43:52.348Z,12.80
2018-11-27T09:46:19.616Z,11.97
2018-11-27T09:48:46.927Z,12.63
2018-11-27T09:51:14.219Z,12.37
2018-11-27T09:53:41.517Z,13.18
2018-11-27T09:56:08.887Z,11.60
2018-11-27T09:58:36.296Z,13.32
2018-11-27T10:01:03.586Z,11.73
2018-11-27T10:03:30.876Z,11.70
2018-11-27T10:05:58.160Z,12.85
2018-11-27T10:08:25.570Z,12.75
2018-11-27T10:10:52.896Z,12.23
2018-11-27T10:13:20.197Z,13.62
2018-11-27T10:15:47.488Z,12.43
2018-11-27T10:18:14.796Z,11.80
2018-11-27T10:20:42.355Z,12.30
2018-11-27T10:23:11.148Z,12.25
2018-11-27T10:25:38.719Z,12.95
2018-11-27T10:28:06.269Z,13.62
2018-11-27T10:30:33.575Z,13.55
2018-11-27T10:33:00.886Z,11.68
2018-11-27T10:35:29.911Z,13.90
2018-11-27T10:37:57.219Z,11.85
2018-11-27T10:40:24.464Z,13.95
2018-11-27T10:42:51.823Z,12.75
2018-11-27T10:45:19.581Z,12.50
2018-11-27T10:47:47.355Z,13.40
2018-11-27T10:50:15.279Z,11.88
2018-11-27T10:52:44.106Z,12.23
2018-11-27T10:55:12.913Z,11.22
2018-11-27T10:57:40.254Z,12.73
2018-11-27T11:00:15.898Z,12.90
2018-11-27T11:02:44.539Z,11.60
2018-11-27T11:05:11.822Z,13.18
2018-11-27T11:07:39.127Z,12.80
2018-11-27T11:10:06.736Z,11.83
2018-11-27T11:12:34.001Z,13.72
2018-11-27T11:15:01.281Z,11.68
2018-11-27T11:17:28.568Z,12.60
2018-11-27T11:19:55.892Z,13.58
2018-11-27T11:22:23.154Z,12.35
2018-11-27T11:24:50.459Z,12.50
2018-11-27T11:27:17.767Z,12.75
2018-11-27T11:29:45.273Z,13.00
2018-11-27T11:32:12.585Z,11.18
2018-11-27T11:34:39.880Z,11.50
2018-11-27T11:37:07.127Z,11.25
2018-11-27T11:39:34.430Z,9.60
2018-11-27T11:42:01.691Z,8.93
2018-11-27T11:44:28.997Z,10.40
2018-11-27T11:46:56.270Z,12.00
2018-11-27T11:49:23.556Z,9.55
2018-11-27T11:51:50.891Z,9.48
2018-11-27T11:54:18.167Z,10.05
2018-11-27T11:56:45.569Z,9.68
2018-11-27T11:59:12.880Z,9.53
2018-11-27T12:01:40.184Z,9.45
2018-11-27T12:04:07.437Z,10.90
2018-11-27T12:06:34.741Z,10.63
2018-11-27T12:09:02.051Z,10.15
2018-11-27T12:11:29.384Z,11.35
2018-11-27T12:13:56.712Z,10.35
2018-11-27T12:16:24.010Z,10.65
2018-11-27T12:18:51.344Z,11.33
2018-11-27T12:21:18.688Z,10.25
2018-11-27T12:23:46.002Z,11.48
2018-11-27T12:26:13.293Z,11.20
2018-11-27T12:28:40.539Z,10.55
2018-11-27T12:31:07.806Z,10.72
2018-11-27T12:33:35.100Z,9.80
2018-11-27T12:36:02.381Z,10.70
2018-11-27T12:38:29.656Z,10.32
2018-11-27T12:40:56.938Z,10.78
2018-11-27T12:43:24.224Z,10.82
2018-11-27T12:45:51.687Z,10.98
2018-11-27T12:48:19.141Z,9.95
2018-11-27T12:50:47.183Z,9.95
2018-11-27T12:53:17.012Z,9.98
2018-11-27T12:55:42.932Z,10.58
2018-11-27T12:58:10.233Z,10.28
2018-11-27T13:00:37.535Z,8.68
2018-11-27T13:03:04.982Z,10.05
2018-11-27T13:05:39.964Z,9.90
2018-11-27T13:08:08.032Z,9.30
2018-11-27T13:10:35.296Z,10.00
2018-11-27T13:13:02.618Z,9.80
2018-11-27T13:15:29.906Z,8.93
2018-11-27T13:17:57.165Z,9.15
2018-11-27T13:20:24.449Z,7.72
2018-11-27T13:22:51.982Z,9.50
2018-11-27T13:25:21.257Z,8.98
2018-11-27T13:27:48.969Z,8.65
2018-11-27T13:30:18.085Z,10.05
2018-11-27T13:32:46.249Z,8.98
2018-11-27T13:35:13.712Z,9.50
2018-11-27T13:37:41.051Z,9.68
2018-11-27T13:40:09.078Z,8.85
2018-11-27T13:42:36.370Z,8.93
2018-11-27T13:45:03.772Z,7.45
2018-11-27T13:47:31.090Z,9.95
2018-11-27T13:49:58.391Z,9.10
2018-11-27T13:52:25.686Z,9.10
2018-11-27T13:54:52.984Z,8.73
2018-11-27T13:57:20.298Z,8.98
2018-11-27T13:59:47.560Z,9.55
2018-11-27T14:02:14.876Z,8.28
2018-11-27T14:04:42.140Z,8.88
2018-11-27T14:07:09.425Z,9.08
2018-11-27T14:09:36.730Z,8.60
2018-11-27T14:12:04.016Z,9.10
2018-11-27T14:14:31.309Z,8.70
2018-11-27T14:16:58.874Z,8.95
2018-11-27T14:19:26.164Z,10.13
2018-11-27T14:21:53.473Z,9.03
2018-11-27T14:24:20.741Z,9.55
2018-11-27T14:26:48.080Z,9.18
2018-11-27T14:29:15.348Z,9.43
2018-11-27T14:31:42.663Z,9.68
2018-11-27T14:34:09.928Z,9.33
2018-11-27T14:36:37.196Z,10.13
2018-11-27T14:39:07.766Z,8.85
2018-11-27T14:41:35.039Z,10.80
2018-11-27T14:44:02.329Z,9.90
2018-11-27T14:46:29.621Z,10.63
2018-11-27T14:48:56.917Z,10.03
2018-11-27T14:51:24.198Z,9.63
2018-11-27T14:53:51.527Z,9.78
2018-11-27T14:56:18.804Z,10.55
2018-11-27T14:58:50.900Z,10.72
2018-11-27T15:01:13.420Z,10.88
2018-11-27T15:03:40.724Z,10.78
2018-11-27T15:06:07.977Z,9.05
2018-11-27T15:08:35.257Z,10.95
2018-11-27T15:11:02.859Z,11.20
2018-11-27T15:13:30.160Z,10.50
2018-11-27T15:15:57.461Z,9.70
2018-11-27T15:18:24.773Z,11.10
2018-11-27T15:20:52.083Z,11.75
2018-11-27T15:23:19.399Z,11.28
2018-11-27T15:25:46.712Z,12.23
2018-11-27T15:28:14.005Z,10.75
2018-11-27T15:30:41.355Z,12.07
2018-11-27T15:33:08.663Z,11.55
2018-11-27T15:35:36.307Z,10.78
2018-11-27T15:38:04.023Z,11.70
2018-11-27T15:40:31.333Z,11.73
2018-11-27T15:42:58.640Z,11.88
2018-11-27T15:45:27.492Z,10.35
2018-11-27T15:47:54.786Z,13.22
2018-11-27T15:50:22.090Z,12.28
2018-11-27T15:52:49.576Z,12.98
2018-11-27T15:55:17.513Z,12.07
2018-11-27T15:57:45.049Z,11.80
2018-11-27T16:00:13.130Z,11.30
2018-11-27T16:02:40.540Z,10.95
2018-11-27T16:05:07.856Z,11.40
2018-11-27T16:07:35.175Z,11.10
2018-11-27T16:10:02.413Z,11.78
2018-11-27T16:12:29.720Z,10.65
2018-11-27T16:14:57.052Z,9.68
2018-11-27T16:17:24.413Z,12.47
2018-11-27T16:19:51.705Z,10.50
2018-11-27T16:22:19.007Z,10.72
2018-11-27T16:24:46.411Z,12.73
2018-11-27T16:27:13.757Z,12.10
2018-11-27T16:29:41.067Z,12.55
2018-11-27T16:32:08.632Z,11.83
2018-11-27T16:34:35.912Z,11.73
2018-11-27T16:37:03.216Z,11.57
2018-11-27T16:39:30.542Z,11.35
2018-11-27T16:41:57.790Z,12.75
2018-11-27T16:44:25.151Z,12.80
2018-11-27T16:46:52.460Z,13.10
2018-11-27T16:49:19.773Z,13.50
2018-11-27T16:51:47.080Z,12.20
2018-11-27T16:54:14.370Z,13.48
2018-11-27T16:56:41.644Z,13.48
2018-11-27T16:59:09.174Z,13.15
2018-11-27T17:01:36.449Z,15.63
2018-11-27T17:04:03.792Z,15.88
2018-11-27T17:06:31.101Z,15.32
2018-11-27T17:08:58.406Z,15.25
2018-11-27T17:11:25.711Z,15.65
2018-11-27T17:13:53.030Z,15.08
2018-11-27T17:16:20.340Z,12.75
2018-11-27T17:18:47.647Z,13.00
2018-11-27T17:21:15.044Z,14.50
2018-11-27T17:23:42.316Z,13.43
2018-11-27T17:26:09.655Z,15.20
2018-11-27T17:28:36.959Z,13.18
2018-11-27T17:31:07.554Z,14.28
2018-11-27T17:33:40.839Z,14.05
2018-11-27T17:36:08.659Z,13.50
2018-11-27T17:38:36.377Z,14.43
2018-11-27T17:41:03.690Z,14.33
2018-11-27T17:43:30.987Z,14.55
2018-11-27T17:45:58.328Z,15.15
2018-11-27T17:48:25.693Z,14.13
2018-11-27T17:50:53.051Z,14.78
2018-11-27T17:53:20.444Z,13.13
2018-11-27T17:55:48.022Z,14.00
2018-11-27T17:58:15.333Z,14.18
2018-11-27T18:00:42.770Z,15.13
2018-11-27T18:03:10.470Z,16.25
2018-11-27T18:05:37.853Z,14.68
2018-11-27T18:08:05.808Z,15.43
2018-11-27T18:10:33.109Z,15.53
2018-11-27T18:13:00.458Z,15.78
2018-11-27T18:15:27.796Z,15.23
2018-11-27T18:17:55.092Z,14.28
2018-11-27T18:20:29.034Z,16.00
2018-11-27T18:22:56.402Z,16.93
2018-11-27T18:25:24.063Z,14.65
2018-11-27T18:27:51.684Z,15.28
2018-11-27T18:30:20.855Z,14.38
2018-11-27T18:32:48.213Z,13.80
2018-11-27T18:35:18.841Z,14.30
2018-11-27T18:37:46.540Z,15.48
2018-11-27T18:40:14.474Z,16.60
2018-11-27T18:42:41.998Z,14.25
2018-11-27T18:45:17.047Z,16.02
2018-11-27T18:47:44.409Z,15.65
2018-11-27T18:50:11.972Z,14.83
2018-11-27T18:52:39.833Z,15.65
2018-11-27T18:55:09.025Z,14.05
2018-11-27T18:57:36.343Z,14.60
2018-11-27T19:00:04.360Z,15.85
2018-11-27T19:02:31.879Z,14.83
2018-11-27T19:04:59.347Z,14.45
2018-11-27T19:07:26.774Z,17.48
2018-11-27T19:09:54.120Z,13.18
2018-11-27T19:12:21.548Z,13.93
2018-11-27T19:14:48.956Z,14.90
2018-11-27T19:17:16.751Z,14.90
2018-11-27T19:19:44.218Z,13.48
2018-11-27T19:22:11.674Z,13.18
2018-11-27T19:24:38.992Z,13.30
2018-11-27T19:27:06.452Z,14.60
2018-11-27T19:29:33.818Z,13.80
2018-11-27T19:32:01.194Z,13.60
2018-11-27T19:34:28.632Z,14.87
2018-11-27T19:36:56.149Z,13.43
2018-11-27T19:39:23.655Z,14.33
2018-11-27T19:41:51.072Z,15.45
2018-11-27T19:44:18.410Z,13.10
2018-11-27T19:46:45.903Z,14.18
2018-11-27T19:49:14.125Z,15.72
2018-11-27T19:51:42.404Z,15.45
2018-11-27T19:54:09.750Z,14.23
2018-11-27T19:56:37.145Z,13.60
2018-11-27T19:59:05.010Z,13.45
2018-11-27T20:01:31.907Z,17.35
2018-11-27T20:03:59.847Z,14.87
2018-11-27T20:06:27.320Z,14.75
2018-11-27T20:08:54.732Z,15.90
2018-11-27T20:11:22.927Z,14.38
2018-11-27T20:13:50.552Z,14.15
2018-11-27T20:16:18.009Z,15.00
2018-11-27T20:18:45.475Z,13.30
2018-11-27T20:21:12.901Z,13.88
2018-11-27T20:23:40.309Z,14.43
2018-11-27T20:26:07.681Z,14.13
2018-11-27T20:28:35.841Z,13.03
2018-11-27T20:31:03.292Z,12.93
2018-11-27T20:33:35.133Z,12.50
2018-11-27T20:36:02.504Z,14.53
2018-11-27T20:38:29.905Z,13.38
2018-11-27T20:41:01.394Z,13.40
2018-11-27T20:43:28.790Z,14.70
2018-11-27T20:45:56.157Z,15.30
2018-11-27T20:48:23.539Z,13.22
2018-11-27T20:50:56.176Z,12.78
2018-11-27T20:53:23.606Z,15.48
2018-11-27T20:58:18.881Z,12.88
2018-11-27T21:00:47.180Z,15.08
2018-11-27T21:03:14.715Z,12.23
2018-11-27T21:05:44.205Z,14.78
2018-11-27T21:08:11.654Z,13.32
2018-11-27T21:10:39.248Z,14.18
2018-11-27T21:13:07.997Z,13.93
2018-11-27T21:15:35.680Z,15.60
2018-11-27T21:18:03.095Z,14.98
2018-11-27T21:20:31.716Z,15.48
2018-11-27T21:22:59.162Z,16.42
2018-11-27T21:25:26.555Z,14.05
2018-11-27T21:27:56.699Z,15.75
2018-11-27T21:30:29.403Z,16.02
2018-11-27T21:32:57.103Z,14.58
2018-11-27T21:35:24.404Z,15.03
2018-11-27T21:37:51.814Z,13.62
2018-11-27T21:40:19.501Z,14.28
2018-11-27T21:42:47.121Z,14.93
2018-11-27T21:45:18.896Z,15.55
2018-11-27T21:47:47.359Z,15.30
2018-11-27T21:50:16.182Z,14.95
2018-11-27T21:52:45.068Z,16.25
2018-11-27T21:55:12.937Z,15.90
2018-11-27T21:57:40.523Z,15.00
2018-11-27T22:00:10.304Z,15.95
2018-11-27T22:02:38.072Z,14.93
2018-11-27T22:05:10.714Z,15.05
2018-11-27T22:07:38.204Z,14.20
2018-11-27T22:10:08.055Z,15.23
2018-11-27T22:12:35.416Z,14.90
2018-11-27T22:15:02.889Z,16.25
2018-11-27T22:17:30.242Z,15.55
2018-11-27T22:19:57.632Z,16.52
2018-11-27T22:22:24.924Z,14.70
2018-11-27T22:24:52.316Z,17.73
2018-11-27T22:27:19.754Z,14.90
2018-11-27T22:29:47.117Z,17.17
2018-11-27T22:32:14.449Z,17.52
2018-11-27T22:34:41.898Z,14.85
2018-11-27T22:37:09.286Z,15.08
2018-11-27T22:39:37.049Z,17.42
2018-11-27T22:42:05.373Z,17.07
2018-11-27T22:44:32.882Z,16.90
2018-11-27T22:47:00.803Z,15.25
2018-11-27T22:49:28.297Z,16.12
2018-11-27T22:51:55.792Z,15.18
2018-11-27T22:54:23.658Z,18.50
2018-11-27T22:56:50.969Z,15.78
2018-11-27T22:59:18.367Z,16.15
2018-11-27T23:01:45.812Z,15.28
2018-11-27T23:04:13.260Z,15.85
2018-11-27T23:06:40.650Z,15.15
2018-11-27T23:09:08.537Z,18.12
2018-11-27T23:11:36.151Z,16.60
2018-11-27T23:14:03.764Z,15.83
2018-11-27T23:16:31.130Z,16.55
2018-11-27T23:18:59.517Z,16.35
2018-11-27T23:21:26.920Z,16.37
2018-11-27T23:24:00.559Z,17.23
2018-11-27T23:26:28.906Z,17.70
2018-11-27T23:28:56.429Z,16.67
2018-11-27T23:31:24.645Z,17.27
2018-11-27T23:36:18.624Z,16.02
2018-11-27T23:38:46.317Z,17.42
2018-11-27T23:41:13.755Z,17.00
2018-11-27T23:43:41.568Z,16.85
2018-11-27T23:46:08.940Z,17.20
2018-11-27T23:48:36.788Z,15.90
2018-11-27T23:51:04.285Z,17.70
2018-11-27T23:53:32.414Z,14.03
2018-11-27T23:55:59.869Z,18.35
2018-11-27T23:58:28.059Z,16.75
